Airfield :
LOGIN :

Register | Disclaimer

   EN    FR    IT 

 










Legend :    VFR   Marginal VFR   IFR   Intensive IFR   Very Intensive IFR
Visi :
Ceiling :
>= 8 km
>= 3000ft
5 to 8 km
1000 to 3000 ft
1500m to 5 km
500 to 1000 ft
800 to 1500m
200 to 500 ft
< 800m
< 200 ft
Symbols :   Thunderstorms  Fog  Heavy snow  Heavy precipitations  Wind > 20 kt
SIGMETs :     Misc.  Thunderstorms  Icing  Turbulence  Mountain Waves  Volcanic Ashes






- Airport Elevation : 100 ft
- IATA code : DCI


LIED - Decimomannu Air Base

CURRENT METAR :
  • 280655Z 06002KT 9999 FEW005 05/03 Q1017 RMK BKN SCT070 VIS MIN 9999 WIND THR35 /////KT WIND THR17 08003KT BLU

EXPIRED METARs :
  • 280555Z 02004KT 9999 FEW020 04/02 Q1018 RMK SCT SCT200 VIS MIN 9999 WIND THR35 /////KT WIND THR17 03003KT BLU
  • 280455Z 24002KT CAVOK 04/03 Q1019 RMK SKC VIS MIN 9999 WIND THR35 /////KT WIND THR17 22002KT BLU

TAF TAF LIED
Valid from the 28 at 06:00 until the 28 at 15:00 UTC


280500Z 2806/2815 VRB04KT CAVOK
BECMG 2811/2812 16010KT 9999 BKN090



MET'MAP, your aeronautical weather chart ! - Copyright ORBIFLY December 2007 - Disclaimer

ORBIFLY MET'MAP TEAM :

Programming & Development : Alexandra Zaïnal
Original concept : Baudouin d'Aumeries
Technical & hardware support : Manuel Goepfert
Assistance : Marc-Olivier Méhu




SOURCES & CREDITS :

   NOAA